Kaszuby — C6XD6 — position and weather

sailwx.info

Track history (hours):
 
Tides and Currents Weather Stations Pressure Air Temp Water Temp Dewpoint Dewpoint Depression Visibility Wind Speed Wind Dir Waves Ship Positions

Kaszuby

Last reported at 2014-Aug-31 16:20 UTC. Time now 2014-Sep-02 04:13 UTC.
Position S 34°54' W 057°19'.

Length 190 m; draft 9.7 m.

Type: Cargo ship. MMSI: 311005600.

Date/timePositionNaut miles runAvg speedWind from/ knotsBaromVisibWave heightAir tempDewpointWater temp
2014-Aug-31 16:20S 34°54' W 057°19'5 5.1
2014-Aug-31 15:19S 34°51' W 057°24'0 0.0
2014-Aug-31 14:28S 34°51' W 057°24'0 0.2
2014-Aug-31 13:29S 34°51' W 057°24'9 9.4
2014-Aug-31 12:34S 34°46' W 057°33'1110.8
2014-Aug-31 11:34S 34°44' W 057°46'7 7.2
2014-Aug-31 10:34S 34°42' W 057°54'1212.1
2014-Aug-31 09:34S 34°38' W 058°08'9 9.1
2014-Aug-31 08:33S 34°33' W 058°18'8 8.3
2014-Aug-31 07:33S 34°27' W 058°25'21 8.8
2014-Aug-31 05:11S 34°14' W 058°45'  
Track history (hours):
 
Tides and Currents Weather Stations Pressure Air Temp Water Temp Dewpoint Dewpoint Depression Visibility Wind Speed Wind Dir Waves Ship Positions

Kaszuby

Last reported at 2014-Aug-31 16:20 UTC. Time now 2014-Sep-02 04:13 UTC.
Position S 34°54' W 057°19'.

Length 190 m; draft 9.7 m.

Type: Cargo ship. MMSI: 311005600.

Date/timePositionNaut miles runAvg speedWind from/ knotsBaromVisibWave heightAir tempDewpointWater temp
2014-Aug-31 16:20S 34°54' W 057°19'5 5.1
2014-Aug-31 15:19S 34°51' W 057°24'0 0.0
2014-Aug-31 14:28S 34°51' W 057°24'0 0.2
2014-Aug-31 13:29S 34°51' W 057°24'9 9.4
2014-Aug-31 12:34S 34°46' W 057°33'1110.8
2014-Aug-31 11:34S 34°44' W 057°46'7 7.2
2014-Aug-31 10:34S 34°42' W 057°54'1212.1
2014-Aug-31 09:34S 34°38' W 058°08'9 9.1
2014-Aug-31 08:33S 34°33' W 058°18'8 8.3
2014-Aug-31 07:33S 34°27' W 058°25'21 8.8
2014-Aug-31 05:11S 34°14' W 058°45'  

Dump ship's entire track history